Alpha Bulker — 3EEZ9 — position and weather

sailwx.info

Track history (hours):
 
Tides and Currents Weather Stations Pressure Air Temp Water Temp Dewpoint Dewpoint Depression Visibility Wind Speed Wind Dir Waves Ship Positions

Alpha Bulker

Last reported at 2017-Dec-10 12:01 UTC. Time now 2017-Dec-13 20:51 UTC.
Position N 54°19' W 131°27'.

Length 177 m; draft 9.9 m.

Type: Ship. MMSI: 371977000.

Date/timePositionNaut miles runAvg speedWind from/ knotsBaromVisibWave heightAir tempDewpointWater temp
2017-Dec-10 12:01N 54°19' W 131°27'011.7
2017-Dec-10 11:59N 54°19' W 131°26'511.4
2017-Dec-10 11:30N 54°19' W 131°17'611.3
2017-Dec-10 10:59N 54°19' W 131°07'612.4
2017-Dec-10 10:30N 54°19' W 130°57'611.2
2017-Dec-10 10:00N 54°19' W 130°47'611.2
2017-Dec-10 09:30N 54°21' W 130°39'511.1
2017-Dec-10 09:00N 54°27' W 130°36'  
2017-Dec-04 08:55N 54°31' W 130°33'613.3
2017-Dec-04 08:30N 54°26' W 130°36'612.8
2017-Dec-04 08:00N 54°20' W 130°40'510.7
2017-Dec-04 07:30N 54°19' W 130°49'4 8.8
2017-Dec-04 07:00N 54°19' W 130°56'510.8
2017-Dec-04 06:30N 54°14' W 131°01'510.7
2017-Dec-04 06:00N 54°09' W 131°01'4 8.6
2017-Dec-04 05:31N 54°05' W 131°00'4 7.9
2017-Dec-04 05:00N 54°01' W 130°60'5 9.1
2017-Dec-04 04:30N 53°56' W 130°58'1 1.3
2017-Dec-04 04:00N 53°56' W 130°58'1 1.2
2017-Dec-04 03:30N 53°55' W 130°58'1 1.3
2017-Dec-04 03:00N 53°54' W 130°58'1 1.1
2017-Dec-04 02:22N 53°54' W 130°58'1 1.2
2017-Dec-04 01:53N 53°53' W 130°58'1 3.3
2017-Dec-04 01:27N 53°52' W 130°59'810.0
2017-Dec-04 00:41N 53°44' W 130°58'29111.8
2017-Dec-02 23:57N 49°29' W 127°13'511.6
2017-Dec-02 23:30N 49°25' W 127°07'611.9
2017-Dec-02 23:00N 49°21' W 127°00'611.8
2017-Dec-02 22:30N 49°17' W 126°53'611.8
2017-Dec-02 22:00N 49°14' W 126°46'611.7
2017-Dec-02 21:30N 49°10' W 126°39'611.9
2017-Dec-02 21:00N 49°07' W 126°31'611.5
2017-Dec-02 20:30N 49°04' W 126°24'611.9
2017-Dec-02 20:00N 49°01' W 126°16'611.8
2017-Dec-02 19:30N 48°57' W 126°09'611.9
2017-Dec-02 19:00N 48°54' W 126°02'611.6
2017-Dec-02 18:30N 48°51' W 125°54'611.9
2017-Dec-02 18:01N 48°47' W 125°47'612.2
2017-Dec-02 17:30N 48°44' W 125°39'612.3
2017-Dec-02 17:00N 48°41' W 125°31'612.3
2017-Dec-02 16:30N 48°38' W 125°23'612.3
2017-Dec-02 16:00N 48°34' W 125°15'611.6
2017-Dec-02 15:30N 48°33' W 125°07'612.6
2017-Dec-02 15:00N 48°32' W 124°57'612.9
2017-Dec-02 14:30N 48°31' W 124°48'611.8
2017-Dec-02 14:00N 48°30' W 124°39'612.5
2017-Dec-02 13:30N 48°27' W 124°31'713.0
2017-Dec-02 13:00N 48°24' W 124°22'612.8
2017-Dec-02 12:30N 48°22' W 124°13'612.9
2017-Dec-02 12:00N 48°20' W 124°04'612.5
2017-Dec-02 11:30N 48°17' W 123°55'612.0
2017-Dec-02 11:00N 48°17' W 123°46'611.9
2017-Dec-02 10:30N 48°16' W 123°37'510.5
2017-Dec-02 10:00N 48°16' W 123°29'612.0
2017-Dec-02 09:30N 48°22' W 123°25'4 8.6
2017-Dec-02 09:00N 48°23' W 123°19'5 9.4
2017-Dec-02 08:30N 48°25' W 123°12'612.5
2017-Dec-02 08:01N 48°31' W 123°13'611.2
2017-Dec-02 07:31N 48°37' W 123°14'611.3
2017-Dec-02 07:00N 48°43' W 123°15'612.9
2017-Dec-02 06:31N 48°45' W 123°06'510.5
2017-Dec-02 06:00N 48°49' W 123°01'713.1
2017-Dec-02 05:30N 48°54' W 123°08'613.1
2017-Dec-02 05:00N 48°58' W 123°15'612.6
2017-Dec-02 04:30N 49°03' W 123°21'611.7
2017-Dec-02 04:00N 49°08' W 123°15'714.4
2017-Dec-02 03:30N 49°08' W 123°04'612.5
2017-Dec-02 03:01N 49°10' W 122°56'1 2.3
2017-Dec-02 02:30N 49°11' W 122°55'0 0.0
2017-Dec-02 02:00N 49°11' W 122°55'0 0.0
2017-Dec-02 01:30N 49°11' W 122°55'0 0.0
2017-Dec-02 00:59N 49°11' W 122°55'0 0.0
2017-Dec-02 00:29N 49°11' W 122°55'0 0.0
2017-Dec-01 23:59N 49°11' W 122°55'0 0.0
2017-Dec-01 23:29N 49°11' W 122°55'0 0.0
2017-Dec-01 22:59N 49°11' W 122°55'0 0.0
2017-Dec-01 22:26N 49°11' W 122°55'0 0.0
2017-Dec-01 21:59N 49°11' W 122°55'0 0.0
2017-Dec-01 21:29N 49°11' W 122°55'0 0.0
2017-Dec-01 20:59N 49°11' W 122°55'0 0.0
2017-Dec-01 20:29N 49°11' W 122°55'0 0.0
2017-Dec-01 19:59N 49°11' W 122°55'0 0.0
2017-Dec-01 19:26N 49°11' W 122°55'0 0.0
2017-Dec-01 18:59N 49°11' W 122°55'0 0.0
2017-Dec-01 18:29N 49°11' W 122°55'0 0.0
2017-Dec-01 17:59N 49°11' W 122°55'0 0.0
2017-Dec-01 17:29N 49°11' W 122°55'0 0.0
2017-Dec-01 16:56N 49°11' W 122°55'0 0.0
2017-Dec-01 16:26N 49°11' W 122°55'0 0.0
2017-Dec-01 15:59N 49°11' W 122°55'0 0.0
2017-Dec-01 15:29N 49°11' W 122°55'0 0.0
2017-Dec-01 14:59N 49°11' W 122°55'0 0.0
2017-Dec-01 14:29N 49°11' W 122°55'0 0.0
2017-Dec-01 13:59N 49°11' W 122°55'0 0.0
2017-Dec-01 13:29N 49°11' W 122°55'0 0.0
2017-Dec-01 12:59N 49°11' W 122°55'0 0.0
2017-Dec-01 12:29N 49°11' W 122°55'0 0.0
2017-Dec-01 11:56N 49°11' W 122°55'0 0.0
2017-Dec-01 11:29N 49°11' W 122°55'0 0.0
2017-Dec-01 10:59N 49°11' W 122°55'0 0.0
2017-Dec-01 10:29N 49°11' W 122°55'0 0.0
2017-Dec-01 09:59N 49°11' W 122°55'0 0.0
2017-Dec-01 09:26N 49°11' W 122°55'0 0.0
2017-Dec-01 08:59N 49°11' W 122°55'0 0.0
2017-Dec-01 08:29N 49°11' W 122°55'0 0.0
2017-Dec-01 07:56N 49°11' W 122°55'0 0.0
2017-Dec-01 07:29N 49°11' W 122°55'0 0.0
2017-Dec-01 06:59N 49°11' W 122°55'0 0.0
2017-Dec-01 06:29N 49°11' W 122°55'0 0.0
2017-Dec-01 05:59N 49°11' W 122°55'0 0.0
2017-Dec-01 05:29N 49°11' W 122°55'0 0.0
2017-Dec-01 04:59N 49°11' W 122°55'0 0.0
2017-Dec-01 04:29N 49°11' W 122°55'0 0.0
2017-Dec-01 03:59N 49°11' W 122°55'0 0.0
2017-Dec-01 03:29N 49°11' W 122°55'0 0.0
2017-Dec-01 02:59N 49°11' W 122°55'0 0.0
2017-Dec-01 02:29N 49°11' W 122°55'0 0.0
2017-Dec-01 01:59N 49°11' W 122°55'0 0.0
2017-Dec-01 01:29N 49°11' W 122°55'0 0.0
2017-Dec-01 00:59N 49°11' W 122°55'0 0.0
2017-Dec-01 00:29N 49°11' W 122°55'0 0.0
2017-Nov-30 23:59N 49°11' W 122°55'0 0.0
2017-Nov-30 23:29N 49°11' W 122°55'0 0.0
2017-Nov-30 22:59N 49°11' W 122°55'0 0.0
2017-Nov-30 22:29N 49°11' W 122°55'0 0.0
2017-Nov-30 21:56N 49°11' W 122°55'0 0.0
2017-Nov-30 21:29N 49°11' W 122°55'0 0.0
2017-Nov-30 20:59N 49°11' W 122°55'0 0.0
2017-Nov-30 20:29N 49°11' W 122°55'0 0.0
2017-Nov-30 19:59N 49°11' W 122°55'0 0.0
2017-Nov-30 19:29N 49°11' W 122°55'0 0.0
2017-Nov-30 18:59N 49°11' W 122°55'0 0.0
2017-Nov-30 18:29N 49°11' W 122°55'0 0.0
2017-Nov-30 17:59N 49°11' W 122°55'0 0.0
2017-Nov-30 17:29N 49°11' W 122°55'0 0.0
2017-Nov-30 16:59N 49°11' W 122°55'0 0.0
2017-Nov-30 16:29N 49°11' W 122°55'0 0.0
2017-Nov-30 15:59N 49°11' W 122°55'0 0.0
2017-Nov-30 15:29N 49°11' W 122°55'0 0.0
2017-Nov-30 14:59N 49°11' W 122°55'0 0.0
2017-Nov-30 14:29N 49°11' W 122°55'0 0.0
2017-Nov-30 13:59N 49°11' W 122°55'0 0.0
2017-Nov-30 13:29N 49°11' W 122°55'0 0.0
2017-Nov-30 12:59N 49°11' W 122°55'0 0.0
2017-Nov-30 12:29N 49°11' W 122°55'  
Track history (hours):
 
Tides and Currents Weather Stations Pressure Air Temp Water Temp Dewpoint Dewpoint Depression Visibility Wind Speed Wind Dir Waves Ship Positions

Alpha Bulker

Last reported at 2017-Dec-10 12:01 UTC. Time now 2017-Dec-13 20:51 UTC.
Position N 54°19' W 131°27'.

Length 177 m; draft 9.9 m.

Type: Ship. MMSI: 371977000.

Date/timePositionNaut miles runAvg speedWind from/ knotsBaromVisibWave heightAir tempDewpointWater temp
2017-Dec-10 12:01N 54°19' W 131°27'011.7
2017-Dec-10 11:59N 54°19' W 131°26'511.4
2017-Dec-10 11:30N 54°19' W 131°17'611.3
2017-Dec-10 10:59N 54°19' W 131°07'612.4
2017-Dec-10 10:30N 54°19' W 130°57'611.2
2017-Dec-10 10:00N 54°19' W 130°47'611.2
2017-Dec-10 09:30N 54°21' W 130°39'511.1
2017-Dec-10 09:00N 54°27' W 130°36'  
2017-Dec-04 08:55N 54°31' W 130°33'613.3
2017-Dec-04 08:30N 54°26' W 130°36'612.8
2017-Dec-04 08:00N 54°20' W 130°40'510.7
2017-Dec-04 07:30N 54°19' W 130°49'4 8.8
2017-Dec-04 07:00N 54°19' W 130°56'510.8
2017-Dec-04 06:30N 54°14' W 131°01'510.7
2017-Dec-04 06:00N 54°09' W 131°01'4 8.6
2017-Dec-04 05:31N 54°05' W 131°00'4 7.9
2017-Dec-04 05:00N 54°01' W 130°60'5 9.1
2017-Dec-04 04:30N 53°56' W 130°58'1 1.3
2017-Dec-04 04:00N 53°56' W 130°58'1 1.2
2017-Dec-04 03:30N 53°55' W 130°58'1 1.3
2017-Dec-04 03:00N 53°54' W 130°58'1 1.1
2017-Dec-04 02:22N 53°54' W 130°58'1 1.2
2017-Dec-04 01:53N 53°53' W 130°58'1 3.3
2017-Dec-04 01:27N 53°52' W 130°59'810.0
2017-Dec-04 00:41N 53°44' W 130°58'29111.8
2017-Dec-02 23:57N 49°29' W 127°13'511.6
2017-Dec-02 23:30N 49°25' W 127°07'611.9
2017-Dec-02 23:00N 49°21' W 127°00'611.8
2017-Dec-02 22:30N 49°17' W 126°53'611.8
2017-Dec-02 22:00N 49°14' W 126°46'611.7
2017-Dec-02 21:30N 49°10' W 126°39'611.9
2017-Dec-02 21:00N 49°07' W 126°31'611.5
2017-Dec-02 20:30N 49°04' W 126°24'611.9
2017-Dec-02 20:00N 49°01' W 126°16'611.8
2017-Dec-02 19:30N 48°57' W 126°09'611.9
2017-Dec-02 19:00N 48°54' W 126°02'611.6
2017-Dec-02 18:30N 48°51' W 125°54'611.9
2017-Dec-02 18:01N 48°47' W 125°47'612.2
2017-Dec-02 17:30N 48°44' W 125°39'612.3
2017-Dec-02 17:00N 48°41' W 125°31'612.3
2017-Dec-02 16:30N 48°38' W 125°23'612.3
2017-Dec-02 16:00N 48°34' W 125°15'611.6
2017-Dec-02 15:30N 48°33' W 125°07'612.6
2017-Dec-02 15:00N 48°32' W 124°57'612.9
2017-Dec-02 14:30N 48°31' W 124°48'611.8
2017-Dec-02 14:00N 48°30' W 124°39'612.5
2017-Dec-02 13:30N 48°27' W 124°31'713.0
2017-Dec-02 13:00N 48°24' W 124°22'612.8
2017-Dec-02 12:30N 48°22' W 124°13'612.9
2017-Dec-02 12:00N 48°20' W 124°04'612.5
2017-Dec-02 11:30N 48°17' W 123°55'612.0
2017-Dec-02 11:00N 48°17' W 123°46'611.9
2017-Dec-02 10:30N 48°16' W 123°37'510.5
2017-Dec-02 10:00N 48°16' W 123°29'612.0
2017-Dec-02 09:30N 48°22' W 123°25'4 8.6
2017-Dec-02 09:00N 48°23' W 123°19'5 9.4
2017-Dec-02 08:30N 48°25' W 123°12'612.5
2017-Dec-02 08:01N 48°31' W 123°13'611.2
2017-Dec-02 07:31N 48°37' W 123°14'611.3
2017-Dec-02 07:00N 48°43' W 123°15'612.9
2017-Dec-02 06:31N 48°45' W 123°06'510.5
2017-Dec-02 06:00N 48°49' W 123°01'713.1
2017-Dec-02 05:30N 48°54' W 123°08'613.1
2017-Dec-02 05:00N 48°58' W 123°15'612.6
2017-Dec-02 04:30N 49°03' W 123°21'611.7
2017-Dec-02 04:00N 49°08' W 123°15'714.4
2017-Dec-02 03:30N 49°08' W 123°04'612.5
2017-Dec-02 03:01N 49°10' W 122°56'1 2.3
2017-Dec-02 02:30N 49°11' W 122°55'0 0.0
2017-Dec-02 02:00N 49°11' W 122°55'0 0.0
2017-Dec-02 01:30N 49°11' W 122°55'0 0.0
2017-Dec-02 00:59N 49°11' W 122°55'0 0.0
2017-Dec-02 00:29N 49°11' W 122°55'0 0.0
2017-Dec-01 23:59N 49°11' W 122°55'0 0.0
2017-Dec-01 23:29N 49°11' W 122°55'0 0.0
2017-Dec-01 22:59N 49°11' W 122°55'0 0.0
2017-Dec-01 22:26N 49°11' W 122°55'0 0.0
2017-Dec-01 21:59N 49°11' W 122°55'0 0.0
2017-Dec-01 21:29N 49°11' W 122°55'0 0.0
2017-Dec-01 20:59N 49°11' W 122°55'0 0.0
2017-Dec-01 20:29N 49°11' W 122°55'0 0.0
2017-Dec-01 19:59N 49°11' W 122°55'0 0.0
2017-Dec-01 19:26N 49°11' W 122°55'0 0.0
2017-Dec-01 18:59N 49°11' W 122°55'0 0.0
2017-Dec-01 18:29N 49°11' W 122°55'0 0.0
2017-Dec-01 17:59N 49°11' W 122°55'0 0.0
2017-Dec-01 17:29N 49°11' W 122°55'0 0.0
2017-Dec-01 16:56N 49°11' W 122°55'0 0.0
2017-Dec-01 16:26N 49°11' W 122°55'0 0.0
2017-Dec-01 15:59N 49°11' W 122°55'0 0.0
2017-Dec-01 15:29N 49°11' W 122°55'0 0.0
2017-Dec-01 14:59N 49°11' W 122°55'0 0.0
2017-Dec-01 14:29N 49°11' W 122°55'0 0.0
2017-Dec-01 13:59N 49°11' W 122°55'0 0.0
2017-Dec-01 13:29N 49°11' W 122°55'0 0.0
2017-Dec-01 12:59N 49°11' W 122°55'0 0.0
2017-Dec-01 12:29N 49°11' W 122°55'0 0.0
2017-Dec-01 11:56N 49°11' W 122°55'0 0.0
2017-Dec-01 11:29N 49°11' W 122°55'0 0.0
2017-Dec-01 10:59N 49°11' W 122°55'0 0.0
2017-Dec-01 10:29N 49°11' W 122°55'0 0.0
2017-Dec-01 09:59N 49°11' W 122°55'0 0.0
2017-Dec-01 09:26N 49°11' W 122°55'0 0.0
2017-Dec-01 08:59N 49°11' W 122°55'0 0.0
2017-Dec-01 08:29N 49°11' W 122°55'0 0.0
2017-Dec-01 07:56N 49°11' W 122°55'0 0.0
2017-Dec-01 07:29N 49°11' W 122°55'0 0.0
2017-Dec-01 06:59N 49°11' W 122°55'0 0.0
2017-Dec-01 06:29N 49°11' W 122°55'0 0.0
2017-Dec-01 05:59N 49°11' W 122°55'0 0.0
2017-Dec-01 05:29N 49°11' W 122°55'0 0.0
2017-Dec-01 04:59N 49°11' W 122°55'0 0.0
2017-Dec-01 04:29N 49°11' W 122°55'0 0.0
2017-Dec-01 03:59N 49°11' W 122°55'0 0.0
2017-Dec-01 03:29N 49°11' W 122°55'0 0.0
2017-Dec-01 02:59N 49°11' W 122°55'0 0.0
2017-Dec-01 02:29N 49°11' W 122°55'0 0.0
2017-Dec-01 01:59N 49°11' W 122°55'0 0.0
2017-Dec-01 01:29N 49°11' W 122°55'0 0.0
2017-Dec-01 00:59N 49°11' W 122°55'0 0.0
2017-Dec-01 00:29N 49°11' W 122°55'0 0.0
2017-Nov-30 23:59N 49°11' W 122°55'0 0.0
2017-Nov-30 23:29N 49°11' W 122°55'0 0.0
2017-Nov-30 22:59N 49°11' W 122°55'0 0.0
2017-Nov-30 22:29N 49°11' W 122°55'0 0.0
2017-Nov-30 21:56N 49°11' W 122°55'0 0.0
2017-Nov-30 21:29N 49°11' W 122°55'0 0.0
2017-Nov-30 20:59N 49°11' W 122°55'0 0.0
2017-Nov-30 20:29N 49°11' W 122°55'0 0.0
2017-Nov-30 19:59N 49°11' W 122°55'0 0.0
2017-Nov-30 19:29N 49°11' W 122°55'0 0.0
2017-Nov-30 18:59N 49°11' W 122°55'0 0.0
2017-Nov-30 18:29N 49°11' W 122°55'0 0.0
2017-Nov-30 17:59N 49°11' W 122°55'0 0.0
2017-Nov-30 17:29N 49°11' W 122°55'0 0.0
2017-Nov-30 16:59N 49°11' W 122°55'0 0.0
2017-Nov-30 16:29N 49°11' W 122°55'0 0.0
2017-Nov-30 15:59N 49°11' W 122°55'0 0.0
2017-Nov-30 15:29N 49°11' W 122°55'0 0.0
2017-Nov-30 14:59N 49°11' W 122°55'0 0.0
2017-Nov-30 14:29N 49°11' W 122°55'0 0.0
2017-Nov-30 13:59N 49°11' W 122°55'0 0.0
2017-Nov-30 13:29N 49°11' W 122°55'0 0.0
2017-Nov-30 12:59N 49°11' W 122°55'0 0.0
2017-Nov-30 12:29N 49°11' W 122°55'  

Dump ship's entire track history